sensor_id;sensor_type;location;lat;lon;timestamp;temperature;humidity
7894;DHT22;51343;51.396;6.656;2023-03-11T00:00:20;1.20;99.90
7894;DHT22;51343;51.396;6.656;2023-03-11T00:02:49;1.20;99.90
7894;DHT22;51343;51.396;6.656;2023-03-11T00:05:21;1.20;99.90
7894;DHT22;51343;51.396;6.656;2023-03-11T00:07:50;1.10;99.90
7894;DHT22;51343;51.396;6.656;2023-03-11T00:10:18;1.20;99.90
7894;DHT22;51343;51.396;6.656;2023-03-11T00:12:47;1.20;99.90
7894;DHT22;51343;51.396;6.656;2023-03-11T00:15:16;1.20;99.90
7894;DHT22;51343;51.396;6.656;2023-03-11T00:17:44;1.10;99.90
7894;DHT22;51343;51.396;6.656;2023-03-11T00:20:14;1.10;99.90
7894;DHT22;51343;51.396;6.656;2023-03-11T00:22:50;1.10;99.90
7894;DHT22;51343;51.396;6.656;2023-03-11T00:25:26;1.20;99.90
7894;DHT22;51343;51.396;6.656;2023-03-11T00:27:56;1.20;99.90
7894;DHT22;51343;51.396;6.656;2023-03-11T00:30:31;1.10;99.90
7894;DHT22;51343;51.396;6.656;2023-03-11T00:32:59;1.20;99.90
7894;DHT22;51343;51.396;6.656;2023-03-11T00:35:28;1.20;99.90
7894;DHT22;51343;51.396;6.656;2023-03-11T00:37:57;1.10;99.90
7894;DHT22;51343;51.396;6.656;2023-03-11T00:40:26;1.10;99.90
7894;DHT22;51343;51.396;6.656;2023-03-11T00:42:53;1.20;99.90
7894;DHT22;51343;51.396;6.656;2023-03-11T00:45:22;1.20;99.90
7894;DHT22;51343;51.396;6.656;2023-03-11T00:47:49;1.20;99.90
7894;DHT22;51343;51.396;6.656;2023-03-11T00:50:17;1.20;99.90
7894;DHT22;51343;51.396;6.656;2023-03-11T00:52:44;1.20;99.90
7894;DHT22;51343;51.396;6.656;2023-03-11T00:55:12;1.20;99.90
7894;DHT22;51343;51.396;6.656;2023-03-11T00:57:42;1.20;99.90
7894;DHT22;51343;51.396;6.656;2023-03-11T01:00:12;1.20;99.90
7894;DHT22;51343;51.396;6.656;2023-03-11T01:02:41;1.20;99.90
7894;DHT22;51343;51.396;6.656;2023-03-11T01:05:10;1.30;99.90
7894;DHT22;51343;51.396;6.656;2023-03-11T01:07:39;1.30;99.90
7894;DHT22;51343;51.396;6.656;2023-03-11T01:10:11;1.30;99.90
7894;DHT22;51343;51.396;6.656;2023-03-11T01:12:39;1.20;99.90
7894;DHT22;51343;51.396;6.656;2023-03-11T01:15:09;1.30;99.90
7894;DHT22;51343;51.396;6.656;2023-03-11T01:17:43;1.30;99.90
7894;DHT22;51343;51.396;6.656;2023-03-11T01:20:11;1.30;99.90
7894;DHT22;51343;51.396;6.656;2023-03-11T01:22:38;1.30;99.90
7894;DHT22;51343;51.396;6.656;2023-03-11T01:25:06;1.30;99.90
7894;DHT22;51343;51.396;6.656;2023-03-11T01:27:34;1.30;99.90
7894;DHT22;51343;51.396;6.656;2023-03-11T01:30:03;1.30;99.90
7894;DHT22;51343;51.396;6.656;2023-03-11T01:32:34;1.30;99.90
7894;DHT22;51343;51.396;6.656;2023-03-11T01:35:02;1.20;99.90
7894;DHT22;51343;51.396;6.656;2023-03-11T01:37:29;1.20;99.90
7894;DHT22;51343;51.396;6.656;2023-03-11T01:39:56;1.20;99.90
7894;DHT22;51343;51.396;6.656;2023-03-11T01:42:24;1.10;99.90
7894;DHT22;51343;51.396;6.656;2023-03-11T01:44:51;1.10;99.90
7894;DHT22;51343;51.396;6.656;2023-03-11T01:47:33;1.10;99.90
7894;DHT22;51343;51.396;6.656;2023-03-11T01:50:01;1.00;99.90
7894;DHT22;51343;51.396;6.656;2023-03-11T01:52:30;1.00;99.90
7894;DHT22;51343;51.396;6.656;2023-03-11T01:54:57;0.90;99.90
7894;DHT22;51343;51.396;6.656;2023-03-11T01:57:24;0.80;99.90
7894;DHT22;51343;51.396;6.656;2023-03-11T01:59:52;0.80;99.90
7894;DHT22;51343;51.396;6.656;2023-03-11T02:02:22;0.80;99.90
7894;DHT22;51343;51.396;6.656;2023-03-11T02:04:51;0.70;99.90
7894;DHT22;51343;51.396;6.656;2023-03-11T02:07:20;0.70;99.90
7894;DHT22;51343;51.396;6.656;2023-03-11T02:09:49;0.60;99.90
7894;DHT22;51343;51.396;6.656;2023-03-11T02:12:16;0.60;99.90
7894;DHT22;51343;51.396;6.656;2023-03-11T02:14:46;0.60;99.90
7894;DHT22;51343;51.396;6.656;2023-03-11T02:17:14;0.60;99.90
7894;DHT22;51343;51.396;6.656;2023-03-11T02:22:24;0.40;99.90
7894;DHT22;51343;51.396;6.656;2023-03-11T02:27:31;0.40;99.90
7894;DHT22;51343;51.396;6.656;2023-03-11T02:30:00;0.40;99.90
7894;DHT22;51343;51.396;6.656;2023-03-11T02:32:27;0.40;99.90
7894;DHT22;51343;51.396;6.656;2023-03-11T02:34:56;0.30;99.90
7894;DHT22;51343;51.396;6.656;2023-03-11T02:37:24;0.30;99.90
7894;DHT22;51343;51.396;6.656;2023-03-11T02:39:52;0.30;99.90
7894;DHT22;51343;51.396;6.656;2023-03-11T02:42:21;0.30;99.90
7894;DHT22;51343;51.396;6.656;2023-03-11T02:44:52;0.20;99.90
7894;DHT22;51343;51.396;6.656;2023-03-11T02:47:28;0.20;99.90
7894;DHT22;51343;51.396;6.656;2023-03-11T02:49:55;0.20;99.90
7894;DHT22;51343;51.396;6.656;2023-03-11T02:52:23;0.10;99.90
7894;DHT22;51343;51.396;6.656;2023-03-11T02:54:51;0.10;99.90
7894;DHT22;51343;51.396;6.656;2023-03-11T02:59:54;0.10;99.90
7894;DHT22;51343;51.396;6.656;2023-03-11T03:02:22;0.10;99.90
7894;DHT22;51343;51.396;6.656;2023-03-11T03:04:49;0.00;99.90
7894;DHT22;51343;51.396;6.656;2023-03-11T03:07:16;0.00;99.90
7894;DHT22;51343;51.396;6.656;2023-03-11T03:12:19;0.00;99.90
7894;DHT22;51343;51.396;6.656;2023-03-11T03:14:45;0.00;99.90
7894;DHT22;51343;51.396;6.656;2023-03-11T03:17:14;-0.10;99.90
7894;DHT22;51343;51.396;6.656;2023-03-11T03:19:41;0.00;99.90
7894;DHT22;51343;51.396;6.656;2023-03-11T03:22:08;-0.10;98.40
7894;DHT22;51343;51.396;6.656;2023-03-11T03:24:35;-0.10;94.40
7894;DHT22;51343;51.396;6.656;2023-03-11T03:27:02;-0.10;85.10
7894;DHT22;51343;51.396;6.656;2023-03-11T03:29:30;-0.10;90.90
7894;DHT22;51343;51.396;6.656;2023-03-11T03:31:57;-0.10;94.40
7894;DHT22;51343;51.396;6.656;2023-03-11T03:34:26;-0.20;92.50
7894;DHT22;51343;51.396;6.656;2023-03-11T03:36:53;-0.10;62.10
7894;DHT22;51343;51.396;6.656;2023-03-11T03:39:21;-0.20;60.00
7894;DHT22;51343;51.396;6.656;2023-03-11T03:41:49;-0.20;73.00
7894;DHT22;51343;51.396;6.656;2023-03-11T03:44:16;-0.20;92.30
7894;DHT22;51343;51.396;6.656;2023-03-11T03:46:42;-0.20;86.00
7894;DHT22;51343;51.396;6.656;2023-03-11T03:49:09;-0.20;82.00
7894;DHT22;51343;51.396;6.656;2023-03-11T03:51:42;-0.20;51.30
7894;DHT22;51343;51.396;6.656;2023-03-11T03:54:09;-0.20;52.20
7894;DHT22;51343;51.396;6.656;2023-03-11T03:56:36;-0.20;58.20
7894;DHT22;51343;51.396;6.656;2023-03-11T03:59:07;-0.20;56.40
7894;DHT22;51343;51.396;6.656;2023-03-11T04:01:36;-0.30;62.90
7894;DHT22;51343;51.396;6.656;2023-03-11T04:04:03;-0.30;58.70
7894;DHT22;51343;51.396;6.656;2023-03-11T04:06:30;-0.20;49.50
7894;DHT22;51343;51.396;6.656;2023-03-11T04:08:59;-0.30;41.40
7894;DHT22;51343;51.396;6.656;2023-03-11T04:11:26;-0.30;44.20
7894;DHT22;51343;51.396;6.656;2023-03-11T04:13:53;-0.30;40.20
7894;DHT22;51343;51.396;6.656;2023-03-11T04:16:21;-0.30;43.20
7894;DHT22;51343;51.396;6.656;2023-03-11T04:18:49;-0.40;54.50
7894;DHT22;51343;51.396;6.656;2023-03-11T04:21:16;-0.40;71.70
7894;DHT22;51343;51.396;6.656;2023-03-11T04:23:43;-0.40;59.50
7894;DHT22;51343;51.396;6.656;2023-03-11T04:26:11;-0.40;62.80
7894;DHT22;51343;51.396;6.656;2023-03-11T04:28:39;-0.40;72.20
7894;DHT22;51343;51.396;6.656;2023-03-11T04:31:06;-0.40;76.30
7894;DHT22;51343;51.396;6.656;2023-03-11T04:33:33;-0.50;74.50
7894;DHT22;51343;51.396;6.656;2023-03-11T04:36:03;-0.50;72.20
7894;DHT22;51343;51.396;6.656;2023-03-11T04:38:30;-0.60;76.00
7894;DHT22;51343;51.396;6.656;2023-03-11T04:40:58;-0.60;96.50
7894;DHT22;51343;51.396;6.656;2023-03-11T04:43:27;-0.60;95.10
7894;DHT22;51343;51.396;6.656;2023-03-11T04:45:54;-0.60;95.70
7894;DHT22;51343;51.396;6.656;2023-03-11T04:48:22;-0.70;99.10
7894;DHT22;51343;51.396;6.656;2023-03-11T04:50:51;-0.70;99.90
7894;DHT22;51343;51.396;6.656;2023-03-11T04:53:18;-0.60;99.90
7894;DHT22;51343;51.396;6.656;2023-03-11T04:55:45;-0.60;99.90
7894;DHT22;51343;51.396;6.656;2023-03-11T04:58:12;-0.50;99.90
7894;DHT22;51343;51.396;6.656;2023-03-11T05:00:41;-0.50;99.90
7894;DHT22;51343;51.396;6.656;2023-03-11T05:03:08;-0.40;99.90
7894;DHT22;51343;51.396;6.656;2023-03-11T05:05:34;-0.40;99.90
7894;DHT22;51343;51.396;6.656;2023-03-11T05:08:01;-0.30;98.70
7894;DHT22;51343;51.396;6.656;2023-03-11T05:10:28;-0.30;92.40
7894;DHT22;51343;51.396;6.656;2023-03-11T05:12:55;-0.20;66.30
7894;DHT22;51343;51.396;6.656;2023-03-11T05:15:22;-0.10;74.70
7894;DHT22;51343;51.396;6.656;2023-03-11T05:17:50;-0.10;83.60
7894;DHT22;51343;51.396;6.656;2023-03-11T05:20:17;-0.10;74.00
7894;DHT22;51343;51.396;6.656;2023-03-11T05:22:44;-0.10;54.60
7894;DHT22;51343;51.396;6.656;2023-03-11T05:25:11;-0.10;28.20
7894;DHT22;51343;51.396;6.656;2023-03-11T05:27:37;-0.10;27.70
7894;DHT22;51343;51.396;6.656;2023-03-11T05:30:05;-0.10;24.50
7894;DHT22;51343;51.396;6.656;2023-03-11T05:32:33;-0.20;44.50
7894;DHT22;51343;51.396;6.656;2023-03-11T05:35:02;-0.20;82.80
7894;DHT22;51343;51.396;6.656;2023-03-11T05:37:29;-0.20;68.50
7894;DHT22;51343;51.396;6.656;2023-03-11T05:39:58;-0.20;84.20
7894;DHT22;51343;51.396;6.656;2023-03-11T05:42:25;-0.20;60.80
7894;DHT22;51343;51.396;6.656;2023-03-11T05:44:51;-0.20;53.10
7894;DHT22;51343;51.396;6.656;2023-03-11T05:47:18;-0.30;74.20
7894;DHT22;51343;51.396;6.656;2023-03-11T05:49:45;-0.30;81.40
7894;DHT22;51343;51.396;6.656;2023-03-11T05:52:14;-0.30;96.50
7894;DHT22;51343;51.396;6.656;2023-03-11T05:54:41;-0.40;88.90
7894;DHT22;51343;51.396;6.656;2023-03-11T05:57:07;-0.40;91.70
7894;DHT22;51343;51.396;6.656;2023-03-11T05:59:34;-0.40;99.90
7894;DHT22;51343;51.396;6.656;2023-03-11T06:02:02;-0.40;99.90
7894;DHT22;51343;51.396;6.656;2023-03-11T06:04:28;-0.40;99.90
7894;DHT22;51343;51.396;6.656;2023-03-11T06:06:55;-0.40;99.90
7894;DHT22;51343;51.396;6.656;2023-03-11T06:09:24;-0.30;99.90
7894;DHT22;51343;51.396;6.656;2023-03-11T06:11:50;-0.30;99.90
7894;DHT22;51343;51.396;6.656;2023-03-11T06:14:17;-0.20;99.90
7894;DHT22;51343;51.396;6.656;2023-03-11T06:16:44;-0.30;99.90
7894;DHT22;51343;51.396;6.656;2023-03-11T06:19:11;-0.30;99.90
7894;DHT22;51343;51.396;6.656;2023-03-11T06:21:38;-0.40;99.90
7894;DHT22;51343;51.396;6.656;2023-03-11T06:24:05;-0.40;99.90
7894;DHT22;51343;51.396;6.656;2023-03-11T06:26:33;-0.40;99.90
7894;DHT22;51343;51.396;6.656;2023-03-11T06:29:00;-0.40;99.90
7894;DHT22;51343;51.396;6.656;2023-03-11T06:31:27;-0.50;99.90
7894;DHT22;51343;51.396;6.656;2023-03-11T06:33:55;-0.60;99.90
7894;DHT22;51343;51.396;6.656;2023-03-11T06:36:23;-0.60;99.90
7894;DHT22;51343;51.396;6.656;2023-03-11T06:38:50;-0.70;99.90
7894;DHT22;51343;51.396;6.656;2023-03-11T06:41:17;-0.70;99.90
7894;DHT22;51343;51.396;6.656;2023-03-11T06:43:45;-0.70;99.90
7894;DHT22;51343;51.396;6.656;2023-03-11T06:46:14;-0.80;99.90
7894;DHT22;51343;51.396;6.656;2023-03-11T06:48:41;-0.70;99.90
7894;DHT22;51343;51.396;6.656;2023-03-11T06:51:08;-0.70;99.90
7894;DHT22;51343;51.396;6.656;2023-03-11T06:53:35;-0.70;99.90
7894;DHT22;51343;51.396;6.656;2023-03-11T06:56:03;-0.70;99.90
7894;DHT22;51343;51.396;6.656;2023-03-11T06:58:30;-0.60;99.90
7894;DHT22;51343;51.396;6.656;2023-03-11T07:01:02;-0.50;99.90
7894;DHT22;51343;51.396;6.656;2023-03-11T07:03:29;-0.50;99.90
7894;DHT22;51343;51.396;6.656;2023-03-11T07:05:56;-0.40;99.90
7894;DHT22;51343;51.396;6.656;2023-03-11T07:08:24;-0.30;99.90
7894;DHT22;51343;51.396;6.656;2023-03-11T07:11:02;-0.20;96.60
7894;DHT22;51343;51.396;6.656;2023-03-11T07:13:30;-0.20;91.40
7894;DHT22;51343;51.396;6.656;2023-03-11T07:16:02;-0.10;60.90
7894;DHT22;51343;51.396;6.656;2023-03-11T07:18:29;-0.10;28.90
7894;DHT22;51343;51.396;6.656;2023-03-11T07:20:56;0.00;1.10
7894;DHT22;51343;51.396;6.656;2023-03-11T07:23:23;0.10;1.00
7894;DHT22;51343;51.396;6.656;2023-03-11T07:25:52;0.10;1.00
7894;DHT22;51343;51.396;6.656;2023-03-11T07:28:20;0.10;1.00
7894;DHT22;51343;51.396;6.656;2023-03-11T07:30:49;0.20;1.00
7894;DHT22;51343;51.396;6.656;2023-03-11T07:33:18;0.20;1.00
7894;DHT22;51343;51.396;6.656;2023-03-11T07:35:46;0.30;1.00
7894;DHT22;51343;51.396;6.656;2023-03-11T07:38:13;0.30;1.00
7894;DHT22;51343;51.396;6.656;2023-03-11T07:40:41;0.40;1.00
7894;DHT22;51343;51.396;6.656;2023-03-11T07:43:08;0.50;1.00
7894;DHT22;51343;51.396;6.656;2023-03-11T07:45:35;0.50;1.00
7894;DHT22;51343;51.396;6.656;2023-03-11T07:48:02;0.60;99.90
7894;DHT22;51343;51.396;6.656;2023-03-11T07:50:30;0.60;1.00
7894;DHT22;51343;51.396;6.656;2023-03-11T07:52:57;0.60;1.00
7894;DHT22;51343;51.396;6.656;2023-03-11T07:55:24;0.70;99.90
7894;DHT22;51343;51.396;6.656;2023-03-11T07:57:51;0.70;56.20
7894;DHT22;51343;51.396;6.656;2023-03-11T08:00:19;0.80;1.00
7894;DHT22;51343;51.396;6.656;2023-03-11T08:02:46;0.80;99.90
7894;DHT22;51343;51.396;6.656;2023-03-11T08:05:13;0.90;99.90
7894;DHT22;51343;51.396;6.656;2023-03-11T08:07:41;0.90;1.00
7894;DHT22;51343;51.396;6.656;2023-03-11T08:10:09;0.90;37.10
7894;DHT22;51343;51.396;6.656;2023-03-11T08:12:36;1.00;1.00
7894;DHT22;51343;51.396;6.656;2023-03-11T08:15:03;1.10;99.90
7894;DHT22;51343;51.396;6.656;2023-03-11T08:17:31;1.10;99.90
7894;DHT22;51343;51.396;6.656;2023-03-11T08:19:58;1.20;1.00
7894;DHT22;51343;51.396;6.656;2023-03-11T08:22:25;1.20;99.90
7894;DHT22;51343;51.396;6.656;2023-03-11T08:24:54;1.30;99.90
7894;DHT22;51343;51.396;6.656;2023-03-11T08:27:21;1.30;1.00
7894;DHT22;51343;51.396;6.656;2023-03-11T08:29:54;1.40;1.00
7894;DHT22;51343;51.396;6.656;2023-03-11T08:32:21;1.50;1.00
7894;DHT22;51343;51.396;6.656;2023-03-11T08:34:47;1.50;1.00
7894;DHT22;51343;51.396;6.656;2023-03-11T08:37:14;1.60;1.00
7894;DHT22;51343;51.396;6.656;2023-03-11T08:39:41;1.60;1.00
7894;DHT22;51343;51.396;6.656;2023-03-11T08:42:21;1.70;1.00
7894;DHT22;51343;51.396;6.656;2023-03-11T08:44:54;1.70;1.00
7894;DHT22;51343;51.396;6.656;2023-03-11T08:47:21;1.70;1.00
7894;DHT22;51343;51.396;6.656;2023-03-11T08:49:49;1.80;1.00
7894;DHT22;51343;51.396;6.656;2023-03-11T08:52:19;1.80;1.00
7894;DHT22;51343;51.396;6.656;2023-03-11T08:54:46;1.90;1.00
7894;DHT22;51343;51.396;6.656;2023-03-11T08:57:14;1.90;1.00
7894;DHT22;51343;51.396;6.656;2023-03-11T08:59:41;1.90;1.00
7894;DHT22;51343;51.396;6.656;2023-03-11T09:02:08;2.00;1.00
7894;DHT22;51343;51.396;6.656;2023-03-11T09:04:38;2.10;1.00
7894;DHT22;51343;51.396;6.656;2023-03-11T09:07:06;2.20;1.00
7894;DHT22;51343;51.396;6.656;2023-03-11T09:09:42;2.20;99.90
7894;DHT22;51343;51.396;6.656;2023-03-11T09:12:09;2.40;99.90
7894;DHT22;51343;51.396;6.656;2023-03-11T09:14:39;2.50;99.90
7894;DHT22;51343;51.396;6.656;2023-03-11T09:17:07;2.50;99.90
7894;DHT22;51343;51.396;6.656;2023-03-11T09:19:37;2.60;99.90
7894;DHT22;51343;51.396;6.656;2023-03-11T09:22:04;2.60;99.90
7894;DHT22;51343;51.396;6.656;2023-03-11T09:24:31;2.70;99.90
7894;DHT22;51343;51.396;6.656;2023-03-11T09:26:58;2.70;99.90
7894;DHT22;51343;51.396;6.656;2023-03-11T09:29:25;2.70;99.90
7894;DHT22;51343;51.396;6.656;2023-03-11T09:31:53;2.80;99.90
7894;DHT22;51343;51.396;6.656;2023-03-11T09:34:20;2.90;99.90
7894;DHT22;51343;51.396;6.656;2023-03-11T09:36:50;2.90;99.90
7894;DHT22;51343;51.396;6.656;2023-03-11T09:39:18;2.90;99.90
7894;DHT22;51343;51.396;6.656;2023-03-11T09:41:45;3.00;99.90
7894;DHT22;51343;51.396;6.656;2023-03-11T09:44:16;3.10;98.30
7894;DHT22;51343;51.396;6.656;2023-03-11T09:46:56;3.20;64.20
7894;DHT22;51343;51.396;6.656;2023-03-11T09:49:26;3.30;64.10
7894;DHT22;51343;51.396;6.656;2023-03-11T09:51:56;3.50;64.40
7894;DHT22;51343;51.396;6.656;2023-03-11T09:54:26;3.70;70.10
7894;DHT22;51343;51.396;6.656;2023-03-11T09:56:55;3.90;54.80
7894;DHT22;51343;51.396;6.656;2023-03-11T09:59:25;4.10;39.50
7894;DHT22;51343;51.396;6.656;2023-03-11T10:01:53;4.30;18.30
7894;DHT22;51343;51.396;6.656;2023-03-11T10:04:22;4.20;2.30
7894;DHT22;51343;51.396;6.656;2023-03-11T10:06:51;4.10;4.20
7894;DHT22;51343;51.396;6.656;2023-03-11T10:09:25;4.20;7.10
7894;DHT22;51343;51.396;6.656;2023-03-11T10:12:05;4.20;1.00
7894;DHT22;51343;51.396;6.656;2023-03-11T10:14:40;4.30;1.60
7894;DHT22;51343;51.396;6.656;2023-03-11T10:17:12;4.40;1.00
7894;DHT22;51343;51.396;6.656;2023-03-11T10:19:43;4.30;1.00
7894;DHT22;51343;51.396;6.656;2023-03-11T10:22:13;4.30;1.00
7894;DHT22;51343;51.396;6.656;2023-03-11T10:24:46;4.50;1.00
7894;DHT22;51343;51.396;6.656;2023-03-11T10:27:14;4.90;1.00
7894;DHT22;51343;51.396;6.656;2023-03-11T10:29:45;5.10;1.00
7894;DHT22;51343;51.396;6.656;2023-03-11T10:32:16;5.40;1.00
7894;DHT22;51343;51.396;6.656;2023-03-11T10:34:47;5.40;1.00
7894;DHT22;51343;51.396;6.656;2023-03-11T10:37:16;5.40;1.00
7894;DHT22;51343;51.396;6.656;2023-03-11T10:39:45;5.50;1.00
7894;DHT22;51343;51.396;6.656;2023-03-11T10:42:13;5.60;1.00
7894;DHT22;51343;51.396;6.656;2023-03-11T10:44:54;5.60;1.00
7894;DHT22;51343;51.396;6.656;2023-03-11T10:47:23;5.60;1.00
7894;DHT22;51343;51.396;6.656;2023-03-11T10:49:52;5.70;1.00
7894;DHT22;51343;51.396;6.656;2023-03-11T10:52:19;5.90;1.00
7894;DHT22;51343;51.396;6.656;2023-03-11T10:54:46;6.00;1.00
7894;DHT22;51343;51.396;6.656;2023-03-11T10:57:21;6.10;1.00
7894;DHT22;51343;51.396;6.656;2023-03-11T10:59:51;6.10;1.00
7894;DHT22;51343;51.396;6.656;2023-03-11T11:02:22;6.20;1.00
7894;DHT22;51343;51.396;6.656;2023-03-11T11:05:04;6.20;1.00
7894;DHT22;51343;51.396;6.656;2023-03-11T11:07:34;6.00;1.00
7894;DHT22;51343;51.396;6.656;2023-03-11T11:10:12;5.90;1.00
7894;DHT22;51343;51.396;6.656;2023-03-11T11:12:50;6.10;1.00
7894;DHT22;51343;51.396;6.656;2023-03-11T11:15:26;6.00;1.00
7894;DHT22;51343;51.396;6.656;2023-03-11T11:17:54;5.80;1.00
7894;DHT22;51343;51.396;6.656;2023-03-11T11:20:23;5.80;1.00
7894;DHT22;51343;51.396;6.656;2023-03-11T11:22:51;5.70;1.00
7894;DHT22;51343;51.396;6.656;2023-03-11T11:25:25;5.60;1.00
7894;DHT22;51343;51.396;6.656;2023-03-11T11:27:53;5.60;1.00
7894;DHT22;51343;51.396;6.656;2023-03-11T11:30:21;5.70;1.00
7894;DHT22;51343;51.396;6.656;2023-03-11T11:32:48;6.10;1.00
7894;DHT22;51343;51.396;6.656;2023-03-11T11:35:18;6.50;1.00
7894;DHT22;51343;51.396;6.656;2023-03-11T11:37:47;6.80;1.00
7894;DHT22;51343;51.396;6.656;2023-03-11T11:40:23;7.10;1.00
7894;DHT22;51343;51.396;6.656;2023-03-11T11:42:56;7.30;1.00
7894;DHT22;51343;51.396;6.656;2023-03-11T11:45:43;7.60;1.00
7894;DHT22;51343;51.396;6.656;2023-03-11T11:48:16;7.80;1.00
7894;DHT22;51343;51.396;6.656;2023-03-11T11:53:59;8.50;1.00
7894;DHT22;51343;51.396;6.656;2023-03-11T11:56:47;8.40;1.00
7894;DHT22;51343;51.396;6.656;2023-03-11T11:59:37;7.90;1.00
7894;DHT22;51343;51.396;6.656;2023-03-11T12:02:25;8.00;1.00
7894;DHT22;51343;51.396;6.656;2023-03-11T12:04:59;8.30;1.00
7894;DHT22;51343;51.396;6.656;2023-03-11T12:07:37;8.60;1.00
7894;DHT22;51343;51.396;6.656;2023-03-11T12:10:17;8.80;1.00
7894;DHT22;51343;51.396;6.656;2023-03-11T12:12:49;9.10;1.00
7894;DHT22;51343;51.396;6.656;2023-03-11T12:15:20;9.50;1.00
7894;DHT22;51343;51.396;6.656;2023-03-11T12:17:48;9.10;1.00
7894;DHT22;51343;51.396;6.656;2023-03-11T12:20:17;8.60;1.00
7894;DHT22;51343;51.396;6.656;2023-03-11T12:25:51;7.60;1.00
7894;DHT22;51343;51.396;6.656;2023-03-11T12:28:23;7.20;1.00
7894;DHT22;51343;51.396;6.656;2023-03-11T12:30:54;7.10;1.00
7894;DHT22;51343;51.396;6.656;2023-03-11T12:33:23;7.10;1.00
7894;DHT22;51343;51.396;6.656;2023-03-11T12:35:53;7.40;1.00
7894;DHT22;51343;51.396;6.656;2023-03-11T12:38:23;8.00;1.00
7894;DHT22;51343;51.396;6.656;2023-03-11T12:40:59;8.60;1.00
7894;DHT22;51343;51.396;6.656;2023-03-11T12:46:12;10.00;1.00
7894;DHT22;51343;51.396;6.656;2023-03-11T12:48:41;10.30;1.00
7894;DHT22;51343;51.396;6.656;2023-03-11T12:56:47;11.80;1.00
7894;DHT22;51343;51.396;6.656;2023-03-11T12:59:22;12.10;99.90
7894;DHT22;51343;51.396;6.656;2023-03-11T13:02:01;11.90;1.00
7894;DHT22;51343;51.396;6.656;2023-03-11T13:04:44;11.90;1.00
7894;DHT22;51343;51.396;6.656;2023-03-11T13:10:18;11.60;1.00
7894;DHT22;51343;51.396;6.656;2023-03-11T13:12:50;11.80;1.00
7894;DHT22;51343;51.396;6.656;2023-03-11T13:18:12;12.50;1.00
7894;DHT22;51343;51.396;6.656;2023-03-11T13:20:48;11.70;1.00
7894;DHT22;51343;51.396;6.656;2023-03-11T13:23:32;10.90;1.00
7894;DHT22;51343;51.396;6.656;2023-03-11T13:29:01;10.50;1.00
7894;DHT22;51343;51.396;6.656;2023-03-11T13:31:43;10.80;1.00
7894;DHT22;51343;51.396;6.656;2023-03-11T13:34:17;11.50;1.00
7894;DHT22;51343;51.396;6.656;2023-03-11T13:36:54;11.60;1.00
7894;DHT22;51343;51.396;6.656;2023-03-11T13:39:30;11.90;1.00
7894;DHT22;51343;51.396;6.656;2023-03-11T13:41:59;11.80;1.00
7894;DHT22;51343;51.396;6.656;2023-03-11T13:44:32;11.70;1.00
7894;DHT22;51343;51.396;6.656;2023-03-11T13:47:02;11.60;1.00
7894;DHT22;51343;51.396;6.656;2023-03-11T13:49:38;11.60;1.00
7894;DHT22;51343;51.396;6.656;2023-03-11T13:52:08;11.80;1.00
7894;DHT22;51343;51.396;6.656;2023-03-11T13:54:38;12.00;1.00
7894;DHT22;51343;51.396;6.656;2023-03-11T13:57:10;12.30;19.30
7894;DHT22;51343;51.396;6.656;2023-03-11T13:59:45;12.30;31.50
7894;DHT22;51343;51.396;6.656;2023-03-11T14:02:17;12.10;19.30
7894;DHT22;51343;51.396;6.656;2023-03-11T14:04:46;12.20;11.80
7894;DHT22;51343;51.396;6.656;2023-03-11T14:07:18;12.10;58.60
7894;DHT22;51343;51.396;6.656;2023-03-11T14:09:46;11.90;73.60
7894;DHT22;51343;51.396;6.656;2023-03-11T14:12:13;11.60;72.60
7894;DHT22;51343;51.396;6.656;2023-03-11T14:14:50;11.40;46.90
7894;DHT22;51343;51.396;6.656;2023-03-11T14:17:18;11.70;32.50
7894;DHT22;51343;51.396;6.656;2023-03-11T14:22:40;11.80;18.80
7894;DHT22;51343;51.396;6.656;2023-03-11T14:25:12;11.90;20.50
7894;DHT22;51343;51.396;6.656;2023-03-11T14:27:44;12.20;1.00
7894;DHT22;51343;51.396;6.656;2023-03-11T14:32:55;12.10;50.60
7894;DHT22;51343;51.396;6.656;2023-03-11T14:35:22;12.30;36.90
7894;DHT22;51343;51.396;6.656;2023-03-11T14:37:49;12.00;56.00
7894;DHT22;51343;51.396;6.656;2023-03-11T14:40:35;11.50;6.80
7894;DHT22;51343;51.396;6.656;2023-03-11T14:43:09;11.20;19.90
7894;DHT22;51343;51.396;6.656;2023-03-11T14:45:38;11.00;45.90
7894;DHT22;51343;51.396;6.656;2023-03-11T14:48:11;10.60;38.20
7894;DHT22;51343;51.396;6.656;2023-03-11T14:50:40;10.60;19.50
7894;DHT22;51343;51.396;6.656;2023-03-11T14:53:14;10.60;6.80
7894;DHT22;51343;51.396;6.656;2023-03-11T14:55:44;10.60;12.80
7894;DHT22;51343;51.396;6.656;2023-03-11T14:58:17;10.50;1.00
7894;DHT22;51343;51.396;6.656;2023-03-11T15:01:00;10.00;1.00
7894;DHT22;51343;51.396;6.656;2023-03-11T15:03:30;9.70;1.00
7894;DHT22;51343;51.396;6.656;2023-03-11T15:06:03;9.70;1.00
7894;DHT22;51343;51.396;6.656;2023-03-11T15:08:33;9.50;1.00
7894;DHT22;51343;51.396;6.656;2023-03-11T15:11:20;9.50;3.10
7894;DHT22;51343;51.396;6.656;2023-03-11T15:13:48;9.10;1.00
7894;DHT22;51343;51.396;6.656;2023-03-11T15:16:23;8.90;1.00
7894;DHT22;51343;51.396;6.656;2023-03-11T15:18:53;8.60;1.00
7894;DHT22;51343;51.396;6.656;2023-03-11T15:21:20;8.60;1.00
7894;DHT22;51343;51.396;6.656;2023-03-11T15:23:48;8.80;1.00
7894;DHT22;51343;51.396;6.656;2023-03-11T15:26:23;8.70;1.00
7894;DHT22;51343;51.396;6.656;2023-03-11T15:28:54;8.60;1.00
7894;DHT22;51343;51.396;6.656;2023-03-11T15:31:29;8.70;1.00
7894;DHT22;51343;51.396;6.656;2023-03-11T15:34:09;8.50;1.00
7894;DHT22;51343;51.396;6.656;2023-03-11T15:36:37;8.30;1.00
7894;DHT22;51343;51.396;6.656;2023-03-11T15:39:17;8.10;1.00
7894;DHT22;51343;51.396;6.656;2023-03-11T15:41:45;7.90;1.00
7894;DHT22;51343;51.396;6.656;2023-03-11T15:44:19;7.80;1.00
7894;DHT22;51343;51.396;6.656;2023-03-11T15:46:47;7.80;1.00
7894;DHT22;51343;51.396;6.656;2023-03-11T15:49:19;7.80;1.00
7894;DHT22;51343;51.396;6.656;2023-03-11T15:51:46;7.60;1.00
7894;DHT22;51343;51.396;6.656;2023-03-11T15:54:13;7.50;1.00
7894;DHT22;51343;51.396;6.656;2023-03-11T15:56:40;7.50;1.00
7894;DHT22;51343;51.396;6.656;2023-03-11T15:59:10;7.40;1.00
7894;DHT22;51343;51.396;6.656;2023-03-11T16:01:38;7.30;1.00
7894;DHT22;51343;51.396;6.656;2023-03-11T16:04:07;7.10;1.00
7894;DHT22;51343;51.396;6.656;2023-03-11T16:06:47;7.00;1.00
7894;DHT22;51343;51.396;6.656;2023-03-11T16:09:14;6.90;1.00
7894;DHT22;51343;51.396;6.656;2023-03-11T16:11:42;6.90;1.00
7894;DHT22;51343;51.396;6.656;2023-03-11T16:14:10;6.80;1.00
7894;DHT22;51343;51.396;6.656;2023-03-11T16:16:40;6.70;1.00
7894;DHT22;51343;51.396;6.656;2023-03-11T16:19:07;6.70;1.00
7894;DHT22;51343;51.396;6.656;2023-03-11T16:21:35;6.60;1.00
7894;DHT22;51343;51.396;6.656;2023-03-11T16:24:04;6.60;1.00
7894;DHT22;51343;51.396;6.656;2023-03-11T16:26:34;6.50;1.00
7894;DHT22;51343;51.396;6.656;2023-03-11T16:29:01;6.40;1.00
7894;DHT22;51343;51.396;6.656;2023-03-11T16:31:28;6.40;1.00
7894;DHT22;51343;51.396;6.656;2023-03-11T16:33:56;6.40;1.00
7894;DHT22;51343;51.396;6.656;2023-03-11T16:36:23;6.40;1.00
7894;DHT22;51343;51.396;6.656;2023-03-11T16:38:52;6.30;1.00
7894;DHT22;51343;51.396;6.656;2023-03-11T16:41:21;6.20;1.00
7894;DHT22;51343;51.396;6.656;2023-03-11T16:43:48;6.10;1.00
7894;DHT22;51343;51.396;6.656;2023-03-11T16:46:15;6.00;1.00
7894;DHT22;51343;51.396;6.656;2023-03-11T16:48:42;6.10;1.00
7894;DHT22;51343;51.396;6.656;2023-03-11T16:51:09;6.10;1.00
7894;DHT22;51343;51.396;6.656;2023-03-11T16:53:37;6.00;1.00
7894;DHT22;51343;51.396;6.656;2023-03-11T16:56:04;6.00;1.00